Weather at Juan Santamaria International Airport

Public forecast

Using degrees Celsius for public forecast. Weather courtesy of forecast.io.

Current aviation weather report (METAR) for Juan Santamaria International Airport

Retrieved 2020/09/27 07:00 UTC (2 minutes ago):

MROC 270700Z 05006KT CAVOK 20/18 A3001 NOSIG

Aviation forecast (TAF) for Juan Santamaria International Airport

Retrieved 2020/09/27 06:24 UTC (38 minutes ago):

TAF MROC 270500Z 2706/2806 08005KT 9999 FEW030 SCT100 TX28/2718Z TN19/2711Z BECMG 2716/2718 25008KT TEMPO 2720/2723 3000 TSRA SCT015CB TEMPO 2800/2805 VRB02KT RA BCFG